Terminal Aerodrome Forecast
Issued by NWS Pocatello, ID

Home | Current Version | Previous Version | Text Only | Print | Product List | Glossary On
Versions: 1 2 3 4 5 6 7 8 9 10 11 12 13 14 15 16 17 18 19 20 21 22 23 24
905
FTUS45 KPIH 110520
TAFIDA
TAF
KIDA 110520Z 1106/1206 01007KT 6SM BR SCT004 SCT025 BKN130
     FM111100 36007KT 4SM BR SCT004 BKN025 BKN100
     FM111300 VRB03KT 4SM BR OVC004
     FM112200 VRB03KT 6SM HZ SCT004 BKN110 BKN160
     FM120200 02007KT 4SM BR SCT004 BKN015 OVC090=

USA.gov is the U.S. government's official web portal to all federal, state and local government web resources and services.